Time;durP1;ratioP1;P1;durP2;ratioP2;P2;SDS_P1;SDS_P2;PMS_P1;PMS_P2;Temp;Humidity;BMP_temperature;BMP_pressure;BME280_temperature;BME280_humidity;BME280_pressure;Samples;Min_cycle;Max_cycle;Signal;HPM_P1;HPM_P2
2023/10/02 00:01:06;;;;;;;31.60;9.40;;;;;;;;;;5105659;28;20031;-60
2023/10/02 00:03:31;;;;;;;31.58;9.40;;;;;;;;;;5107131;28;20498;-60
2023/10/02 00:05:57;;;;;;;25.58;8.98;;;;;;;;;;5102657;28;20046;-59
2023/10/02 00:08:35;;;;;;;35.38;9.43;;;;;;;;;;5107269;28;20035;-61
2023/10/02 00:11:35;;;;;;;32.13;8.95;;;;;;;;;;5100363;28;20050;-61
2023/10/02 00:14:18;;;;;;;29.65;8.63;;;;;;;;;;5103447;28;20043;-60
2023/10/02 00:16:42;;;;;;;27.35;8.75;;;;;;;;;;5104639;28;20032;-60
2023/10/02 00:19:18;;;;;;;24.73;8.15;;;;;;;;;;5104791;28;20052;-61
2023/10/02 00:21:45;;;;;;;31.47;9.57;;;;;;;;;;5065350;28;1091732;-61
2023/10/02 00:24:12;;;;;;;30.17;9.13;;;;;;;;;;5104747;28;20297;-61
2023/10/02 00:26:39;;;;;;;23.65;8.90;;;;;;;;;;5107679;28;20105;-61
2023/10/02 00:29:09;;;;;;;24.90;8.18;;;;;;;;;;5089929;28;20043;-60
2023/10/02 00:31:38;;;;;;;31.27;9.10;;;;;;;;;;5105031;28;20410;-60
2023/10/02 00:34:05;;;;;;;22.92;8.35;;;;;;;;;;5105580;28;20054;-60
2023/10/02 00:36:32;;;;;;;31.27;9.25;;;;;;;;;;5106458;28;20032;-60
2023/10/02 00:39:24;;;;;;;29.25;9.48;;;;;;;;;;5086567;28;20039;-60
2023/10/02 00:45:09;;;;;;;27.50;9.23;;;;;;;;;;5101780;28;20031;-60
2023/10/02 00:47:41;;;;;;;25.02;8.77;;;;;;;;;;5083075;28;20047;-60
2023/10/02 00:50:19;;;;;;;32.83;9.20;;;;;;;;;;5088571;28;20040;-59
2023/10/02 00:52:51;;;;;;;29.75;9.82;;;;;;;;;;5104614;28;20036;-60
2023/10/02 00:55:20;;;;;;;31.85;9.15;;;;;;;;;;5104019;28;20399;-60
2023/10/02 00:57:50;;;;;;;30.73;10.10;;;;;;;;;;5087204;28;20391;-59
2023/10/02 01:00:30;;;;;;;34.38;9.65;;;;;;;;;;5085192;28;20383;-60
2023/10/02 01:03:01;;;;;;;32.13;9.85;;;;;;;;;;5088881;28;20042;-61
2023/10/02 01:05:41;;;;;;;31.92;9.93;;;;;;;;;;5087186;28;20051;-60
2023/10/02 01:08:23;;;;;;;29.30;9.52;;;;;;;;;;5092647;28;20040;-60
2023/10/02 01:10:59;;;;;;;33.63;10.57;;;;;;;;;;5087382;28;20024;-60
2023/10/02 01:13:35;;;;;;;30.02;9.48;;;;;;;;;;5107715;28;20035;-61
2023/10/02 01:16:04;;;;;;;34.40;9.85;;;;;;;;;;5101828;28;20051;-59
2023/10/02 01:18:31;;;;;;;28.13;9.50;;;;;;;;;;5087364;28;20051;-59
2023/10/02 01:20:59;;;;;;;29.35;9.32;;;;;;;;;;5106646;28;20046;-59
2023/10/02 01:23:27;;;;;;;27.27;9.63;;;;;;;;;;5088991;28;20040;-59
2023/10/02 01:25:57;;;;;;;29.43;9.80;;;;;;;;;;5092006;28;20055;-60
2023/10/02 01:28:49;;;;;;;27.42;9.30;;;;;;;;;;5076429;28;20050;-59
2023/10/02 01:31:31;;;;;;;33.45;9.85;;;;;;;;;;5091541;28;20046;-59
2023/10/02 01:33:59;;;;;;;31.75;9.48;;;;;;;;;;5107545;28;20054;-60
2023/10/02 01:36:30;;;;;;;32.97;9.57;;;;;;;;;;5091045;28;20051;-59
2023/10/02 01:39:13;;;;;;;35.25;10.15;;;;;;;;;;5109311;28;20039;-59
2023/10/02 01:41:52;;;;;;;31.63;9.93;;;;;;;;;;5087845;28;20031;-59
2023/10/02 01:44:22;;;;;;;36.63;10.02;;;;;;;;;;5087579;28;20040;-60
2023/10/02 01:46:50;;;;;;;32.22;9.35;;;;;;;;;;5108377;28;20024;-60
2023/10/02 01:49:26;;;;;;;35.95;10.05;;;;;;;;;;5091495;28;20043;-60
2023/10/02 01:52:01;;;;;;;32.70;10.27;;;;;;;;;;5108156;28;20105;-60
2023/10/02 01:54:29;;;;;;;32.88;10.20;;;;;;;;;;5106320;28;20050;-60
2023/10/02 01:56:56;;;;;;;29.13;9.10;;;;;;;;;;5083571;28;20058;-60
2023/10/02 01:59:24;;;;;;;32.38;9.73;;;;;;;;;;5088185;28;20047;-60
2023/10/02 02:01:54;;;;;;;32.88;9.43;;;;;;;;;;5088595;28;20035;-59
2023/10/02 02:04:21;;;;;;;29.52;9.57;;;;;;;;;;5087748;28;20032;-60
2023/10/02 02:06:57;;;;;;;33.90;9.90;;;;;;;;;;5104765;28;20512;-59
2023/10/02 02:09:37;;;;;;;37.03;9.82;;;;;;;;;;5109112;28;20027;-60
2023/10/02 02:12:07;;;;;;;33.35;9.40;;;;;;;;;;5097477;28;20617;-60
2023/10/02 02:14:53;;;;;;;36.42;10.55;;;;;;;;;;5082474;28;20054;-60
2023/10/02 02:17:24;;;;;;;35.17;10.20;;;;;;;;;;5088276;28;20043;-59
2023/10/02 02:19:50;;;;;;;38.53;11.68;;;;;;;;;;5106420;28;20027;-60
2023/10/02 02:22:31;;;;;;;29.55;9.68;;;;;;;;;;5088094;28;20498;-60
2023/10/02 02:24:58;;;;;;;34.05;9.82;;;;;;;;;;5099748;28;20042;-60
2023/10/02 02:27:25;;;;;;;34.00;10.10;;;;;;;;;;5090195;28;20046;-60
2023/10/02 02:29:56;;;;;;;27.20;9.43;;;;;;;;;;5108072;28;20024;-59
2023/10/02 02:32:36;;;;;;;34.42;9.73;;;;;;;;;;5089579;28;20034;-58
2023/10/02 02:35:08;;;;;;;36.40;9.80;;;;;;;;;;5105660;28;20031;-59
2023/10/02 02:37:34;;;;;;;34.55;10.80;;;;;;;;;;5090475;28;20429;-61
2023/10/02 02:40:22;;;;;;;31.38;10.05;;;;;;;;;;5106808;28;20051;-61
2023/10/02 02:42:51;;;;;;;31.65;10.57;;;;;;;;;;5087121;28;20046;-60
2023/10/02 02:45:31;;;;;;;35.92;11.15;;;;;;;;;;5091502;28;20039;-61
2023/10/02 02:48:10;;;;;;;36.70;12.05;;;;;;;;;;5107504;28;20052;-60
2023/10/02 02:50:40;;;;;;;48.17;12.05;;;;;;;;;;5104680;28;20475;-60
2023/10/02 02:53:17;;;;;;;37.40;10.85;;;;;;;;;;5105848;28;20036;-61
2023/10/02 02:55:44;;;;;;;36.10;10.80;;;;;;;;;;5087720;28;20051;-58
2023/10/02 02:58:11;;;;;;;43.15;12.07;;;;;;;;;;5087979;28;20056;-59
2023/10/02 03:00:39;;;;;;;41.15;10.48;;;;;;;;;;5086872;28;20032;-59
2023/10/02 03:05:58;;;;;;;47.80;11.93;;;;;;;;;;5101145;28;20032;-60
2023/10/02 03:08:38;;;;;;;38.97;10.88;;;;;;;;;;5105633;28;20032;-60
2023/10/02 03:11:08;;;;;;;41.65;12.15;;;;;;;;;;5107183;28;20036;-60
2023/10/02 03:13:34;;;;;;;41.47;12.15;;;;;;;;;;5081001;28;20453;-61
2023/10/02 03:16:08;;;;;;;41.70;11.65;;;;;;;;;;5101845;28;20376;-60
2023/10/02 03:18:36;;;;;;;45.00;12.10;;;;;;;;;;5107076;28;20031;-61
2023/10/02 03:23:38;;;;;;;42.05;12.65;;;;;;;;;;5104600;28;20027;-60
2023/10/02 03:26:43;;;;;;;44.17;12.35;;;;;;;;;;5107498;28;20035;-60
2023/10/02 03:29:16;;;;;;;45.95;11.88;;;;;;;;;;5101300;28;20499;-61
2023/10/02 03:31:43;;;;;;;49.85;11.90;;;;;;;;;;5100064;28;20047;-59
2023/10/02 03:34:27;;;;;;;44.10;11.88;;;;;;;;;;5086521;28;20032;-60
2023/10/02 03:37:12;;;;;;;45.47;11.18;;;;;;;;;;5103505;28;20495;-61
2023/10/02 03:42:31;;;;;;;46.40;11.32;;;;;;;;;;5105233;28;20039;-59
2023/10/02 03:44:59;;;;;;;43.53;12.25;;;;;;;;;;5102742;28;20040;-60
2023/10/02 03:47:30;;;;;;;40.45;11.73;;;;;;;;;;5107455;28;20043;-59
2023/10/02 03:50:03;;;;;;;48.40;12.38;;;;;;;;;;5081797;28;20117;-60
2023/10/02 03:52:33;;;;;;;41.28;11.57;;;;;;;;;;5090595;28;20043;-64
2023/10/02 03:55:14;;;;;;;45.67;12.10;;;;;;;;;;5105137;28;20370;-59
2023/10/02 03:57:47;;;;;;;49.45;11.52;;;;;;;;;;5104811;28;20043;-59
2023/10/02 04:00:22;;;;;;;37.45;11.68;;;;;;;;;;5106638;28;20032;-59
2023/10/02 04:02:51;;;;;;;39.47;12.45;;;;;;;;;;5105711;28;20421;-61
2023/10/02 04:08:13;;;;;;;46.05;11.02;;;;;;;;;;5105859;28;20414;-58
2023/10/02 04:10:51;;;;;;;41.88;11.43;;;;;;;;;;5103897;28;20036;-59
2023/10/02 04:13:31;;;;;;;44.17;10.90;;;;;;;;;;5102472;28;20027;-59
2023/10/02 04:18:46;;;;;;;47.95;12.02;;;;;;;;;;5106002;28;20055;-58
2023/10/02 04:21:14;;;;;;;44.60;11.50;;;;;;;;;;5105650;28;20040;-59
2023/10/02 04:23:40;;;;;;;40.95;11.32;;;;;;;;;;5086010;28;20034;-59
2023/10/02 04:26:22;;;;;;;39.08;11.50;;;;;;;;;;5103818;28;20647;-59
2023/10/02 04:28:57;;;;;;;41.95;11.15;;;;;;;;;;5104411;28;20042;-59
2023/10/02 04:31:28;;;;;;;43.53;11.93;;;;;;;;;;5100546;28;20047;-59
2023/10/02 04:36:51;;;;;;;42.40;11.15;;;;;;;;;;5088245;28;20047;-60
2023/10/02 04:42:14;;;;;;;49.90;12.68;;;;;;;;;;5106006;28;20051;-59
2023/10/02 04:44:44;;;;;;;46.42;12.55;;;;;;;;;;5105629;28;20039;-62
2023/10/02 04:47:18;;;;;;;44.40;11.60;;;;;;;;;;5086102;28;20645;-60
2023/10/02 04:55:24;;;;;;;42.05;11.70;;;;;;;;;;5102786;28;20420;-60
2023/10/02 04:58:04;;;;;;;40.45;10.00;;;;;;;;;;5075276;28;20036;-59
2023/10/02 05:00:33;;;;;;;46.03;11.93;;;;;;;;;;5092951;28;20036;-60
2023/10/02 05:03:09;;;;;;;45.10;12.00;;;;;;;;;;5109691;28;20051;-59
2023/10/02 05:05:42;;;;;;;45.47;12.60;;;;;;;;;;5109225;28;20509;-59
2023/10/02 05:08:18;;;;;;;53.50;15.40;;;;;;;;;;5107393;28;20043;-60
2023/10/02 05:10:49;;;;;;;50.50;15.43;;;;;;;;;;5104678;27;20054;-60
2023/10/02 05:16:12;;;;;;;44.95;11.93;;;;;;;;;;5107077;28;20052;-60
2023/10/02 05:18:44;;;;;;;60.58;16.83;;;;;;;;;;5108235;27;20043;-61
2023/10/02 05:21:16;;;;;;;67.00;16.55;;;;;;;;;;5104479;28;20046;-61
2023/10/02 05:23:56;;;;;;;41.10;10.95;;;;;;;;;;5104854;28;20490;-61
2023/10/02 05:26:39;;;;;;;;;;;;;;;;;;5104182;28;20042;-60
2023/10/02 05:29:07;;;;;;;61.05;17.95;;;;;;;;;;5101605;28;19915;-60
2023/10/02 05:31:40;;;;;;;59.47;17.17;;;;;;;;;;5103477;28;20059;-60
2023/10/02 05:34:14;;;;;;;47.17;13.30;;;;;;;;;;5083710;28;20031;-60
2023/10/02 05:39:28;;;;;;;51.85;15.00;;;;;;;;;;5108527;27;20042;-60
2023/10/02 05:42:05;;;;;;;54.40;14.85;;;;;;;;;;5104703;28;20038;-60
2023/10/02 05:44:35;;;;;;;42.00;12.63;;;;;;;;;;5105749;28;20027;-60
2023/10/02 05:47:05;;;;;;;46.05;13.52;;;;;;;;;;5104289;28;20032;-59
2023/10/02 05:49:36;;;;;;;44.33;12.73;;;;;;;;;;5088200;28;20043;-59
2023/10/02 05:52:07;;;;;;;47.83;13.45;;;;;;;;;;5103798;28;20051;-59
2023/10/02 05:54:36;;;;;;;50.20;12.32;;;;;;;;;;5104487;28;20499;-59
2023/10/02 05:57:10;;;;;;;55.45;16.13;;;;;;;;;;5106922;28;20035;-63
2023/10/02 05:59:45;;;;;;;52.95;14.10;;;;;;;;;;5105097;28;20031;-59
2023/10/02 06:02:14;;;;;;;59.92;15.88;;;;;;;;;;5104992;28;20484;-61
2023/10/02 06:04:48;;;;;;;46.97;12.35;;;;;;;;;;5084488;28;20043;-60
2023/10/02 06:07:40;;;;;;;55.45;15.25;;;;;;;;;;5105038;28;20055;-61
2023/10/02 06:10:08;;;;;;;56.90;14.55;;;;;;;;;;5102771;28;20051;-59
2023/10/02 06:12:45;;;;;;;50.60;14.02;;;;;;;;;;5102714;28;20065;-60
2023/10/02 06:15:58;;;;;;;46.13;13.50;;;;;;;;;;5103973;28;20051;-60
2023/10/02 06:18:02;;;;;;;44.05;12.43;;;;;;;;;;5094735;28;20058;-59
2023/10/02 06:20:28;;;;;;;42.63;13.10;;;;;;;;;;5109629;28;20048;-59
2023/10/02 06:23:05;;;;;;;52.28;14.77;;;;;;;;;;5107769;28;20043;-61
2023/10/02 06:25:31;;;;;;;45.03;13.02;;;;;;;;;;5107714;28;20032;-58
2023/10/02 06:28:19;;;;;;;46.28;12.68;;;;;;;;;;5107545;28;20509;-58
2023/10/02 06:30:43;;;;;;;38.30;11.32;;;;;;;;;;5084301;28;20047;-59
2023/10/02 06:33:10;;;;;;;37.08;11.27;;;;;;;;;;5104718;28;20046;-61
2023/10/02 06:35:45;;;;;;;32.58;10.27;;;;;;;;;;5081093;28;20028;-61
2023/10/02 06:38:17;;;;;;;37.30;11.07;;;;;;;;;;5106390;28;20044;-60
2023/10/02 06:40:55;;;;;;;38.13;14.02;;;;;;;;;;5104793;28;20034;-59
2023/10/02 06:43:29;;;;;;;34.85;12.77;;;;;;;;;;5107331;28;20038;-58
2023/10/02 06:46:13;;;;;;;29.05;11.35;;;;;;;;;;5105213;28;20052;-58
2023/10/02 06:48:43;;;;;;;23.30;9.13;;;;;;;;;;5105921;28;20552;-58
2023/10/02 06:51:11;;;;;;;25.88;9.00;;;;;;;;;;5103357;28;20518;-59
2023/10/02 06:53:43;;;;;;;22.58;8.35;;;;;;;;;;5101052;28;20051;-57
2023/10/02 06:56:13;;;;;;;21.60;8.63;;;;;;;;;;5105610;28;20047;-58
2023/10/02 06:58:56;;;;;;;;;;;;;;;;;;5083970;28;20040;-60
2023/10/02 07:01:27;;;;;;;20.17;6.95;;;;;;;;;;5104808;28;20401;-60
2023/10/02 07:03:56;;;;;;;17.83;7.53;;;;;;;;;;5106526;28;20042;-60
2023/10/02 07:06:27;;;;;;;19.20;7.63;;;;;;;;;;5107717;28;20117;-60
2023/10/02 07:09:12;;;;;;;17.13;7.40;;;;;;;;;;5106502;28;20066;-61
2023/10/02 07:11:42;;;;;;;21.00;7.70;;;;;;;;;;5106604;28;20036;-61
2023/10/02 07:14:12;;;;;;;;;;;;;;;;;;5106511;28;20035;-60
2023/10/02 07:16:38;;;;;;;15.32;6.25;;;;;;;;;;5082114;28;19947;-63
2023/10/02 07:19:05;;;;;;;20.15;6.93;;;;;;;;;;5108835;28;20031;-63
2023/10/02 07:21:31;;;;;;;17.80;7.47;;;;;;;;;;5105007;28;20050;-61
2023/10/02 07:24:01;;;;;;;21.65;7.95;;;;;;;;;;5106616;28;20040;-60
2023/10/02 07:26:49;;;;;;;;;;;;;;;;;;5107333;28;20404;-60
2023/10/02 07:29:17;;;;;;;18.25;7.28;;;;;;;;;;5100994;28;19912;-60
2023/10/02 07:31:44;;;;;;;20.65;7.72;;;;;;;;;;5088890;28;20051;-61
2023/10/02 07:34:11;;;;;;;17.73;7.35;;;;;;;;;;5103678;28;20031;-60
2023/10/02 07:36:44;;;;;;;14.32;6.93;;;;;;;;;;5089324;28;20054;-60
2023/10/02 07:42:00;;;;;;;21.30;8.45;;;;;;;;;;5087207;28;20051;-61
2023/10/02 07:44:38;;;;;;;19.30;7.90;;;;;;;;;;5107989;28;20040;-60
2023/10/02 07:47:17;;;;;;;17.35;8.13;;;;;;;;;;5105078;28;20054;-60
2023/10/02 07:49:47;;;;;;;18.63;9.07;;;;;;;;;;5101809;28;20039;-60
2023/10/02 07:52:26;;;;;;;;;;;;;;;;;;5107771;28;20030;-61
2023/10/02 07:55:02;;;;;;;18.75;8.18;;;;;;;;;;5106503;28;19923;-54
2023/10/02 07:57:36;;;;;;;19.33;8.20;;;;;;;;;;5106635;28;20411;-55
2023/10/02 08:00:33;;;;;;;20.50;9.07;;;;;;;;;;5105455;28;20048;-55
2023/10/02 08:02:53;;;;;;;18.88;8.10;;;;;;;;;;5102759;28;20095;-55
2023/10/02 08:05:20;;;;;;;20.17;9.32;;;;;;;;;;5086912;28;20031;-55
2023/10/02 08:07:47;;;;;;;19.08;8.38;;;;;;;;;;5105455;28;20030;-55
2023/10/02 08:10:15;;;;;;;23.23;8.40;;;;;;;;;;5102087;28;20044;-54
2023/10/02 08:12:54;;;;;;;17.63;8.65;;;;;;;;;;5087658;28;20028;-55
2023/10/02 08:15:27;;;;;;;21.20;7.57;;;;;;;;;;5102938;28;20035;-55
2023/10/02 08:20:24;;;;;;;20.60;8.40;;;;;;;;;;5108220;28;20091;-55
2023/10/02 08:22:53;;;;;;;22.35;8.70;;;;;;;;;;5106788;28;20696;-55
2023/10/02 08:25:26;;;;;;;19.50;8.13;;;;;;;;;;5105293;28;20058;-55
2023/10/02 08:27:55;;;;;;;23.80;8.43;;;;;;;;;;5106557;28;20047;-55
2023/10/02 08:30:31;;;;;;;21.40;8.68;;;;;;;;;;5088335;28;20036;-57
2023/10/02 08:33:18;;;;;;;21.63;9.10;;;;;;;;;;5107130;28;20062;-55
2023/10/02 08:35:47;;;;;;;17.95;8.18;;;;;;;;;;5109039;28;20036;-55
2023/10/02 08:38:24;;;;;;;22.85;9.20;;;;;;;;;;5092425;28;20048;-56
2023/10/02 08:40:57;;;;;;;26.67;10.32;;;;;;;;;;5107802;27;20042;-56
2023/10/02 08:43:27;;;;;;;25.15;8.90;;;;;;;;;;5108177;28;20039;-54
2023/10/02 08:45:54;;;;;;;21.40;9.20;;;;;;;;;;5088862;28;20047;-54
2023/10/02 08:48:21;;;;;;;19.50;8.90;;;;;;;;;;5112226;28;20031;-55
2023/10/02 08:50:48;;;;;;;23.27;9.30;;;;;;;;;;5105876;28;20031;-56
2023/10/02 08:53:21;;;;;;;23.17;9.82;;;;;;;;;;5108741;28;20127;-55
2023/10/02 08:56:21;;;;;;;20.65;8.93;;;;;;;;;;5110027;28;20035;-54
2023/10/02 08:59:15;;;;;;;19.35;8.43;;;;;;;;;;5097302;28;20043;-55
2023/10/02 09:01:37;;;;;;;;;;;;;;;;;;5103984;28;20039;-56
2023/10/02 09:04:28;;;;;;;26.00;8.55;;;;;;;;;;5107750;28;19926;-55
2023/10/02 09:06:58;;;;;;;24.25;8.80;;;;;;;;;;5107993;28;20529;-54
2023/10/02 09:09:36;;;;;;;23.65;8.50;;;;;;;;;;5105806;28;20032;-55
2023/10/02 09:12:03;;;;;;;22.73;9.48;;;;;;;;;;5106618;28;20047;-56
2023/10/02 09:17:21;;;;;;;23.13;9.17;;;;;;;;;;5103536;28;20039;-55
2023/10/02 09:19:58;;;;;;;20.20;8.82;;;;;;;;;;5102748;28;20062;-56
2023/10/02 09:22:25;;;;;;;21.67;8.90;;;;;;;;;;5090687;28;20366;-56
2023/10/02 09:25:09;;;;;;;21.98;9.13;;;;;;;;;;5108420;28;20034;-59
2023/10/02 09:27:52;;;;;;;20.02;8.75;;;;;;;;;;5108810;28;20024;-56
2023/10/02 09:30:21;;;;;;;23.45;9.23;;;;;;;;;;5106516;28;20043;-56
2023/10/02 09:32:49;;;;;;;23.98;9.13;;;;;;;;;;5106336;28;20051;-56
2023/10/02 09:35:23;;;;;;;20.80;9.00;;;;;;;;;;5091083;28;20032;-55
2023/10/02 09:37:55;;;;;;;19.52;8.68;;;;;;;;;;5109609;28;20376;-56
2023/10/02 09:40:24;;;;;;;22.73;8.80;;;;;;;;;;5107886;28;20039;-55
2023/10/02 09:43:00;;;;;;;21.35;9.50;;;;;;;;;;5109658;28;20027;-55
2023/10/02 09:45:37;;;;;;;23.35;9.15;;;;;;;;;;5105029;28;20040;-57
2023/10/02 09:48:46;;;;;;;18.60;8.65;;;;;;;;;;5103859;28;20036;-56
2023/10/02 09:50:54;;;;;;;20.77;9.02;;;;;;;;;;5104381;28;20036;-56
2023/10/02 09:53:24;;;;;;;19.17;8.60;;;;;;;;;;5105696;28;20050;-56
2023/10/02 09:56:08;;;;;;;20.10;8.52;;;;;;;;;;5103178;28;20044;-56
2023/10/02 09:58:49;;;;;;;22.23;9.48;;;;;;;;;;5090491;28;20046;-56
2023/10/02 10:03:56;;;;;;;21.02;9.07;;;;;;;;;;5106322;28;20506;-55
2023/10/02 10:06:36;;;;;;;18.20;8.60;;;;;;;;;;5108203;28;20490;-55
2023/10/02 10:11:43;;;;;;;19.20;8.73;;;;;;;;;;5107641;28;20031;-56
2023/10/02 10:14:41;;;;;;;19.00;8.77;;;;;;;;;;5106990;28;20039;-56
2023/10/02 10:17:16;;;;;;;21.03;8.83;;;;;;;;;;5107676;28;20043;-56
2023/10/02 10:20:09;;;;;;;21.83;8.85;;;;;;;;;;5109392;28;20282;-56
2023/10/02 10:22:38;;;;;;;20.38;9.30;;;;;;;;;;5109134;28;20031;-56
2023/10/02 10:25:32;;;;;;;20.25;8.77;;;;;;;;;;5106500;28;20039;-55
2023/10/02 10:30:27;;;;;;;21.40;9.60;;;;;;;;;;5107319;28;20050;-56
2023/10/02 10:33:15;;;;;;;20.65;9.85;;;;;;;;;;5106375;28;20051;-55
2023/10/02 10:35:49;;;;;;;;;;;;;;;;;;5105102;28;20034;-56
2023/10/02 10:38:21;;;;;;;;;;;;;;;;;;;;;
2023/10/02 10:40:50;;;;;;;26.38;10.25;;;;;;;;;;5108427;28;20414;-55
2023/10/02 10:43:17;;;;;;;22.50;10.07;;;;;;;;;;5105781;28;20036;-55
2023/10/02 10:45:48;;;;;;;21.15;9.50;;;;;;;;;;5085942;28;20035;-57
2023/10/02 10:48:24;;;;;;;25.50;10.27;;;;;;;;;;5106696;28;20047;-56
2023/10/02 10:50:59;;;;;;;19.98;9.80;;;;;;;;;;5104277;28;20050;-56
2023/10/02 10:53:32;;;;;;;23.70;10.20;;;;;;;;;;5105468;28;20035;-56
2023/10/02 10:56:17;;;;;;;22.45;10.48;;;;;;;;;;5105477;28;20422;-55
2023/10/02 10:58:44;;;;;;;22.52;9.93;;;;;;;;;;5106070;28;20042;-56
2023/10/02 11:01:16;;;;;;;23.63;10.98;;;;;;;;;;5107154;28;20042;-56
2023/10/02 11:03:43;;;;;;;25.08;11.07;;;;;;;;;;5106811;28;20085;-56
2023/10/02 11:06:10;;;;;;;24.25;10.35;;;;;;;;;;5088694;28;20035;-56
2023/10/02 11:08:38;;;;;;;29.30;10.98;;;;;;;;;;5106302;28;20046;-57
2023/10/02 11:11:48;;;;;;;27.48;11.63;;;;;;;;;;5106720;28;20066;-58
2023/10/02 11:13:54;;;;;;;21.80;10.48;;;;;;;;;;5108536;28;20088;-56
2023/10/02 11:16:31;;;;;;;22.30;10.68;;;;;;;;;;5102290;28;20028;-56
2023/10/02 11:19:21;;;;;;;22.30;11.32;;;;;;;;;;5106186;28;20039;-56
2023/10/02 11:22:01;;;;;;;26.23;11.10;;;;;;;;;;5103630;28;20398;-57
2023/10/02 11:24:27;;;;;;;25.55;11.90;;;;;;;;;;5102351;28;20533;-55
2023/10/02 11:27:04;;;;;;;25.25;11.10;;;;;;;;;;5107872;28;20027;-56
2023/10/02 11:29:40;;;;;;;22.88;10.63;;;;;;;;;;5106742;28;20028;-56
2023/10/02 11:32:23;;;;;;;22.33;10.65;;;;;;;;;;5088540;28;20050;-57
2023/10/02 11:34:59;;;;;;;22.52;10.70;;;;;;;;;;5105328;28;20172;-57
2023/10/02 11:37:26;;;;;;;26.75;12.15;;;;;;;;;;5106193;28;20043;-56
2023/10/02 11:39:55;;;;;;;32.60;11.70;;;;;;;;;;5105673;28;20432;-57
2023/10/02 11:42:23;;;;;;;25.27;11.00;;;;;;;;;;5104183;28;20043;-57
2023/10/02 11:44:49;;;;;;;26.48;11.88;;;;;;;;;;5107872;28;20051;-58
2023/10/02 11:47:15;;;;;;;22.73;11.40;;;;;;;;;;5105985;28;20035;-56
2023/10/02 11:49:42;;;;;;;24.23;11.20;;;;;;;;;;5105273;28;20498;-56
2023/10/02 11:52:09;;;;;;;26.80;12.02;;;;;;;;;;5105250;28;20403;-57
2023/10/02 11:54:41;;;;;;;29.08;12.60;;;;;;;;;;5105618;28;20399;-57
2023/10/02 11:57:09;;;;;;;25.05;11.90;;;;;;;;;;5106508;28;20050;-57
2023/10/02 11:59:37;;;;;;;27.38;11.85;;;;;;;;;;5105140;28;20036;-56
2023/10/02 12:02:04;;;;;;;26.67;11.85;;;;;;;;;;5104916;28;20040;-57
2023/10/02 12:04:31;;;;;;;28.75;12.30;;;;;;;;;;5088516;28;20039;-57
2023/10/02 12:06:58;;;;;;;31.85;12.50;;;;;;;;;;5093497;28;20035;-61
2023/10/02 12:09:25;;;;;;;30.25;12.32;;;;;;;;;;5104186;28;20050;-61
2023/10/02 12:11:51;;;;;;;31.25;13.10;;;;;;;;;;5105012;28;20035;-61
2023/10/02 12:14:18;;;;;;;30.85;13.02;;;;;;;;;;5088339;28;20040;-62
2023/10/02 12:16:44;;;;;;;29.80;13.25;;;;;;;;;;5106755;28;20529;-60
2023/10/02 12:19:11;;;;;;;32.70;13.40;;;;;;;;;;5105146;28;20423;-60
2023/10/02 12:21:37;;;;;;;29.58;13.27;;;;;;;;;;5107051;28;20027;-61
2023/10/02 12:24:04;;;;;;;30.70;13.07;;;;;;;;;;5105699;28;20043;-62
2023/10/02 12:26:32;;;;;;;31.67;13.68;;;;;;;;;;5106826;28;20034;-61
2023/10/02 12:29:00;;;;;;;34.83;14.07;;;;;;;;;;5105533;28;20039;-62
2023/10/02 12:31:26;;;;;;;32.67;13.68;;;;;;;;;;5107830;28;20582;-62
2023/10/02 12:33:52;;;;;;;33.28;13.82;;;;;;;;;;5086934;28;20511;-60
2023/10/02 12:36:22;;;;;;;40.45;14.85;;;;;;;;;;5105535;28;20040;-61
2023/10/02 12:38:52;;;;;;;37.95;14.80;;;;;;;;;;5105269;28;20043;-61
2023/10/02 12:41:37;;;;;;;35.90;15.00;;;;;;;;;;5105219;28;20071;-61
2023/10/02 12:44:03;;;;;;;38.80;14.85;;;;;;;;;;5104787;28;20039;-61
2023/10/02 12:46:30;;;;;;;36.20;15.98;;;;;;;;;;5105632;28;20035;-61
2023/10/02 12:48:58;;;;;;;41.38;16.25;;;;;;;;;;5104532;28;20040;-61
2023/10/02 12:51:25;;;;;;;37.28;15.80;;;;;;;;;;5104571;28;20145;-62
2023/10/02 12:53:51;;;;;;;40.25;15.73;;;;;;;;;;5105716;28;20046;-61
2023/10/02 12:56:20;;;;;;;46.75;17.75;;;;;;;;;;5104268;28;20046;-61
2023/10/02 12:58:48;;;;;;;47.05;18.10;;;;;;;;;;5103536;28;20067;-61
2023/10/02 13:01:16;;;;;;;44.35;17.58;;;;;;;;;;5105046;28;20039;-61
2023/10/02 13:03:42;;;;;;;43.93;17.57;;;;;;;;;;5104606;28;20043;-61
2023/10/02 13:06:12;;;;;;;47.35;17.65;;;;;;;;;;5070244;28;20066;-62
2023/10/02 13:08:40;;;;;;;50.05;17.52;;;;;;;;;;5102052;28;20035;-61
2023/10/02 13:11:13;;;;;;;;;;;;;;;;;;5107881;28;20046;-59
2023/10/02 13:13:46;;;;;;;48.63;19.55;;;;;;;;;;5103403;28;20259;-61
2023/10/02 13:16:13;;;;;;;50.75;19.38;;;;;;;;;;5104759;28;20052;-61
2023/10/02 13:18:40;;;;;;;53.28;20.52;;;;;;;;;;5106939;28;20119;-61
2023/10/02 13:21:08;;;;;;;52.88;19.13;;;;;;;;;;5109483;28;20036;-60
2023/10/02 13:23:38;;;;;;;52.17;19.23;;;;;;;;;;5108556;28;20050;-62
2023/10/02 13:26:06;;;;;;;54.85;20.73;;;;;;;;;;5108343;28;20043;-61
2023/10/02 13:28:34;;;;;;;57.88;21.15;;;;;;;;;;5109770;28;20048;-62
2023/10/02 13:31:13;;;;;;;;;;;;;;;;;;5109604;28;20051;-62
2023/10/02 13:33:47;;;;;;;55.72;22.20;;;;;;;;;;5109345;28;19912;-62
2023/10/02 13:36:14;;;;;;;59.33;21.88;;;;;;;;;;5105339;28;20043;-60
2023/10/02 13:38:44;;;;;;;56.28;21.55;;;;;;;;;;5110163;28;20127;-61
2023/10/02 13:41:11;;;;;;;61.10;22.10;;;;;;;;;;5090854;28;20046;-60
2023/10/02 13:43:41;;;;;;;57.85;21.88;;;;;;;;;;5106535;28;20039;-61
2023/10/02 13:46:09;;;;;;;64.95;23.45;;;;;;;;;;5106817;27;20043;-61
2023/10/02 13:48:38;;;;;;;;;;;;;;;;;;5110928;28;20028;-60
2023/10/02 13:51:05;;;;;;;71.45;25.52;;;;;;;;;;5107941;28;19912;-61
2023/10/02 13:53:33;;;;;;;68.53;24.03;;;;;;;;;;5106465;28;20046;-59
2023/10/02 13:56:10;;;;;;;62.67;23.40;;;;;;;;;;5103548;28;20309;-60
2023/10/02 13:58:38;;;;;;;70.13;26.48;;;;;;;;;;5088240;28;20051;-59
2023/10/02 14:01:06;;;;;;;78.35;28.38;;;;;;;;;;5107600;28;20043;-59
2023/10/02 14:03:33;;;;;;;;;;;;;;;;;;5106876;28;20410;-59
2023/10/02 14:06:03;;;;;;;76.32;27.08;;;;;;;;;;5088689;28;19915;-60
2023/10/02 14:08:30;;;;;;;86.68;28.50;;;;;;;;;;5108878;28;20051;-64
2023/10/02 14:10:56;;;;;;;76.93;26.92;;;;;;;;;;5092768;28;20038;-64
2023/10/02 14:13:22;;;;;;;77.95;26.58;;;;;;;;;;5108185;28;20027;-62
2023/10/02 14:15:48;;;;;;;82.40;27.45;;;;;;;;;;5109013;28;20032;-63
2023/10/02 14:18:15;;;;;;;80.35;28.65;;;;;;;;;;5107367;28;20055;-62
2023/10/02 14:20:41;;;;;;;79.28;27.45;;;;;;;;;;5109452;28;20031;-62
2023/10/02 14:23:07;;;;;;;90.70;29.20;;;;;;;;;;5066513;28;20051;-59
2023/10/02 14:25:38;;;;;;;80.50;28.15;;;;;;;;;;5108885;28;20035;-60
2023/10/02 14:28:08;;;;;;;85.30;28.00;;;;;;;;;;5109922;28;20032;-59
2023/10/02 14:30:34;;;;;;;80.93;27.10;;;;;;;;;;5106392;28;20055;-59
2023/10/02 14:33:01;;;;;;;84.47;27.80;;;;;;;;;;5104592;28;20078;-59
2023/10/02 14:35:28;;;;;;;85.28;28.73;;;;;;;;;;5107345;28;20031;-62
2023/10/02 14:37:55;;;;;;;85.60;28.08;;;;;;;;;;5108043;28;20415;-61
2023/10/02 14:40:30;;;;;;;81.83;27.13;;;;;;;;;;5089400;28;20456;-61
2023/10/02 14:42:57;;;;;;;82.28;27.27;;;;;;;;;;5106126;28;20059;-60
2023/10/02 14:45:26;;;;;;;88.40;29.90;;;;;;;;;;5106151;28;20036;-61
2023/10/02 14:47:57;;;;;;;88.45;28.55;;;;;;;;;;5107985;28;20028;-60
2023/10/02 14:50:25;;;;;;;90.45;29.42;;;;;;;;;;5106549;28;20051;-59
2023/10/02 14:52:52;;;;;;;89.38;29.23;;;;;;;;;;5104452;28;20441;-62
2023/10/02 14:55:25;;;;;;;96.88;30.05;;;;;;;;;;5084901;28;20044;-60
2023/10/02 14:57:52;;;;;;;93.65;29.45;;;;;;;;;;5107332;28;20383;-61
2023/10/02 15:00:21;;;;;;;90.50;29.98;;;;;;;;;;5106568;28;20048;-61
2023/10/02 15:02:48;;;;;;;94.68;30.58;;;;;;;;;;5105591;28;20410;-59
2023/10/02 15:05:15;;;;;;;95.72;30.77;;;;;;;;;;5106368;28;20040;-61
2023/10/02 15:07:45;;;;;;;99.78;29.92;;;;;;;;;;5108211;28;20036;-61
2023/10/02 15:10:15;;;;;;;93.13;30.92;;;;;;;;;;5108842;28;20030;-61
2023/10/02 15:12:41;;;;;;;95.10;28.40;;;;;;;;;;5105508;28;20043;-61
2023/10/02 15:15:13;;;;;;;99.07;29.83;;;;;;;;;;5106045;28;20056;-61
2023/10/02 15:17:45;;;;;;;104.03;29.80;;;;;;;;;;5101710;28;20031;-60
2023/10/02 15:20:16;;;;;;;104.93;31.45;;;;;;;;;;5106812;28;20035;-60
2023/10/02 15:22:45;;;;;;;96.90;29.48;;;;;;;;;;5104652;28;20521;-61
2023/10/02 15:25:14;;;;;;;;;;;;;;;;;;5106647;28;20100;-60
2023/10/02 15:27:51;;;;;;;102.35;30.98;;;;;;;;;;5108201;28;19918;-60
2023/10/02 15:30:20;;;;;;;100.88;30.08;;;;;;;;;;5102917;28;20052;-60
2023/10/02 15:32:47;;;;;;;101.65;30.45;;;;;;;;;;5106902;28;20030;-61
2023/10/02 15:35:16;;;;;;;95.43;29.35;;;;;;;;;;5106617;28;20035;-60
2023/10/02 15:37:43;;;;;;;106.78;33.45;;;;;;;;;;5106084;28;20031;-60
2023/10/02 15:40:14;;;;;;;101.95;33.38;;;;;;;;;;5104481;28;20048;-60
2023/10/02 15:42:42;;;;;;;123.50;42.28;;;;;;;;;;5100424;28;20031;-61
2023/10/02 15:45:14;;;;;;;129.27;45.97;;;;;;;;;;5104235;28;20059;-61